Time;durP1;ratioP1;P1;durP2;ratioP2;P2;SDS_P1;SDS_P2;PMS_P1;PMS_P2;Temp;Humidity;BMP_temperature;BMP_pressure;BME280_temperature;BME280_humidity;BME280_pressure;Samples;Min_cycle;Max_cycle;Signal;HPM_P1;HPM_P2
2022/07/09 00:01:41;;;;;;;9.97;6.13;;;17.60;99.90;;;;;;5051445;28;20665;-81
2022/07/09 00:04:08;;;;;;;10.00;6.23;;;17.50;99.90;;;;;;5050317;28;20700;-81
2022/07/09 00:06:35;;;;;;;9.53;5.53;;;17.50;99.90;;;;;;5049582;28;20204;-80
2022/07/09 00:09:02;;;;;;;11.10;6.33;;;17.50;99.90;;;;;;5050083;28;20653;-81
2022/07/09 00:11:29;;;;;;;8.80;5.73;;;17.50;99.90;;;;;;5051276;28;20205;-81
2022/07/09 00:13:56;;;;;;;11.67;6.13;;;17.50;99.90;;;;;;5055238;28;20298;-81
2022/07/09 00:16:22;;;;;;;10.80;5.80;;;17.40;99.90;;;;;;5047398;28;20290;-79
2022/07/09 00:18:49;;;;;;;9.13;5.67;;;17.40;99.90;;;;;;5049749;28;20540;-81
2022/07/09 00:21:16;;;;;;;9.33;6.47;;;17.40;99.90;;;;;;5052020;28;20201;-81
2022/07/09 00:23:43;;;;;;;8.33;5.43;;;17.40;99.90;;;;;;5051895;28;20196;-81
2022/07/09 00:26:10;;;;;;;8.60;5.33;;;17.30;99.90;;;;;;5045369;28;20270;-81
2022/07/09 00:28:36;;;;;;;11.73;6.20;;;17.30;99.90;;;;;;5050293;28;20209;-81
2022/07/09 00:31:03;;;;;;;11.03;6.10;;;17.30;99.90;;;;;;5048351;28;20213;-81
2022/07/09 00:33:31;;;;;;;12.60;6.30;;;17.20;99.90;;;;;;5049432;28;20229;-81
2022/07/09 00:35:57;;;;;;;7.83;6.30;;;17.20;99.90;;;;;;5045889;28;20209;-81
2022/07/09 00:38:24;;;;;;;8.57;5.73;;;17.20;99.90;;;;;;5048720;28;20201;-82
2022/07/09 00:40:51;;;;;;;10.57;6.13;;;17.20;99.90;;;;;;5048587;28;20205;-81
2022/07/09 00:43:19;;;;;;;10.37;6.07;;;17.10;99.90;;;;;;5049012;28;20700;-81
2022/07/09 00:45:47;;;;;;;10.17;5.87;;;17.10;99.90;;;;;;5049256;28;20620;-82
2022/07/09 00:48:14;;;;;;;9.53;5.97;;;17.10;99.90;;;;;;5048569;28;20676;-80
2022/07/09 00:50:43;;;;;;;10.50;5.53;;;17.10;99.90;;;;;;5049461;28;20197;-81
2022/07/09 00:53:14;;;;;;;10.20;6.03;;;17.00;99.90;;;;;;5051559;28;20215;-81
2022/07/09 00:55:44;;;;;;;9.53;5.60;;;17.00;99.90;;;;;;5048847;28;20689;-82
2022/07/09 00:58:12;;;;;;;10.37;6.07;;;17.00;99.90;;;;;;5049198;28;20209;-80
2022/07/09 01:00:40;;;;;;;11.90;6.00;;;16.90;99.90;;;;;;5052417;28;20220;-81
2022/07/09 01:03:07;;;;;;;10.33;6.23;;;16.90;99.90;;;;;;5048633;28;20213;-79
2022/07/09 01:05:36;;;;;;;10.23;6.13;;;16.80;99.90;;;;;;5047388;28;20205;-81
2022/07/09 01:08:05;;;;;;;11.10;5.80;;;16.80;99.90;;;;;;5046889;28;20581;-82
2022/07/09 01:10:33;;;;;;;8.37;5.37;;;16.80;99.90;;;;;;5050274;28;20205;-83
2022/07/09 01:13:02;;;;;;;7.13;5.80;;;16.70;99.90;;;;;;5044041;28;20204;-80
2022/07/09 01:15:29;;;;;;;14.07;6.60;;;16.70;99.90;;;;;;5047625;28;20704;-81
2022/07/09 01:17:58;;;;;;;10.00;6.40;;;16.70;99.90;;;;;;5049282;28;20717;-81
2022/07/09 01:20:26;;;;;;;11.93;6.43;;;16.70;99.90;;;;;;5047282;28;20227;-81
2022/07/09 01:22:53;;;;;;;8.07;5.47;;;16.70;99.90;;;;;;5050947;28;20219;-81
2022/07/09 01:25:26;;;;;;;10.40;5.97;;;16.70;99.90;;;;;;5051964;28;20680;-82
2022/07/09 01:27:53;;;;;;;8.70;5.30;;;16.70;99.90;;;;;;5048251;28;20224;-81
2022/07/09 01:30:25;;;;;;;9.30;5.27;;;16.70;99.90;;;;;;5047151;28;20613;-81
2022/07/09 01:32:52;;;;;;;7.90;4.77;;;16.70;99.90;;;;;;5044201;28;20619;-82
2022/07/09 01:35:19;;;;;;;10.30;4.53;;;16.70;99.90;;;;;;5047286;28;20330;-81
2022/07/09 01:37:47;;;;;;;10.27;5.80;;;16.60;99.90;;;;;;5045780;28;20201;-80
2022/07/09 01:40:13;;;;;;;8.50;5.47;;;16.70;99.90;;;;;;5042537;28;20197;-80
2022/07/09 01:42:40;;;;;;;8.87;5.50;;;16.70;99.90;;;;;;5042516;28;20665;-81
2022/07/09 01:45:07;;;;;;;8.50;5.43;;;16.70;99.90;;;;;;5052900;28;20208;-81
2022/07/09 01:47:34;;;;;;;7.50;4.67;;;16.60;99.90;;;;;;5048464;28;20198;-82
2022/07/09 01:50:01;;;;;;;6.47;4.70;;;16.60;99.90;;;;;;5049364;28;20294;-87
2022/07/09 01:52:29;;;;;;;9.43;5.80;;;16.60;99.90;;;;;;5046654;28;20298;-80
2022/07/09 01:54:56;;;;;;;10.67;5.67;;;16.60;99.90;;;;;;5050066;28;20224;-81
2022/07/09 01:57:23;;;;;;;9.37;5.03;;;16.60;99.90;;;;;;5046950;28;20836;-81
2022/07/09 01:59:50;;;;;;;7.60;5.00;;;16.50;99.90;;;;;;5047916;28;20279;-80
2022/07/09 02:02:16;;;;;;;8.13;6.00;;;16.50;99.90;;;;;;5047989;28;20205;-81
2022/07/09 02:04:45;;;;;;;11.13;5.40;;;16.40;99.90;;;;;;5049093;28;20266;-81
2022/07/09 02:07:13;;;;;;;9.40;5.47;;;16.40;99.90;;;;;;5046915;28;20316;-81
2022/07/09 02:09:40;;;;;;;7.27;5.00;;;16.40;99.90;;;;;;5047436;28;20204;-81
2022/07/09 02:12:08;;;;;;;9.83;5.60;;;16.30;99.90;;;;;;5047450;28;20695;-82
2022/07/09 02:14:35;;;;;;;9.53;5.50;;;16.20;99.90;;;;;;5047573;28;20626;-81
2022/07/09 02:17:03;;;;;;;11.47;6.60;;;16.10;99.90;;;;;;5043891;28;20240;-81
2022/07/09 02:19:30;;;;;;;8.63;5.93;;;16.10;99.90;;;;;;5046029;28;20221;-82
2022/07/09 02:21:57;;;;;;;9.43;6.13;;;16.10;99.90;;;;;;5049165;28;20614;-81
2022/07/09 02:24:23;;;;;;;11.43;6.83;;;16.00;99.90;;;;;;5048034;28;20726;-84
2022/07/09 02:26:50;;;;;;;13.33;7.23;;;16.00;99.90;;;;;;5044502;28;20217;-82
2022/07/09 02:29:17;;;;;;;14.37;7.60;;;16.00;99.90;;;;;;5045063;28;20278;-82
2022/07/09 02:31:44;;;;;;;14.00;9.03;;;16.00;99.90;;;;;;5049841;28;20198;-82
2022/07/09 02:34:11;;;;;;;11.83;7.60;;;16.00;99.90;;;;;;5047557;28;20305;-80
2022/07/09 02:36:37;;;;;;;16.00;8.50;;;16.00;99.90;;;;;;5049193;28;20239;-83
2022/07/09 02:39:04;;;;;;;15.10;8.43;;;16.00;99.90;;;;;;5046325;28;20250;-83
2022/07/09 02:41:31;;;;;;;17.70;9.57;;;16.00;99.90;;;;;;5047293;28;20213;-82
2022/07/09 02:43:58;;;;;;;15.67;9.50;;;16.00;99.90;;;;;;5042522;28;20209;-82
2022/07/09 02:46:24;;;;;;;14.47;9.07;;;15.90;99.90;;;;;;5044066;28;20229;-79
2022/07/09 02:48:51;;;;;;;16.03;9.03;;;16.00;99.90;;;;;;5080759;28;20221;-82
2022/07/09 02:51:18;;;;;;;20.67;10.93;;;15.90;99.90;;;;;;5046859;28;20212;-82
2022/07/09 02:53:45;;;;;;;17.10;10.30;;;16.00;99.90;;;;;;5045015;28;20199;-82
2022/07/09 02:56:12;;;;;;;17.13;10.10;;;16.00;99.90;;;;;;5048285;28;20691;-81
2022/07/09 02:58:39;;;;;;;17.80;10.60;;;16.00;99.90;;;;;;5047552;28;20197;-81
2022/07/09 03:01:05;;;;;;;16.80;11.07;;;16.00;99.90;;;;;;5047275;28;20638;-82
2022/07/09 03:03:36;;;;;;;17.40;10.90;;;16.10;99.90;;;;;;5048315;28;20232;-81
2022/07/09 03:06:03;;;;;;;20.23;11.27;;;16.20;99.90;;;;;;5043489;28;20263;-80
2022/07/09 03:08:30;;;;;;;18.40;11.47;;;16.20;99.90;;;;;;5045604;28;20205;-82
2022/07/09 03:10:57;;;;;;;19.43;10.77;;;16.20;99.90;;;;;;5044664;28;20228;-81
2022/07/09 03:13:24;;;;;;;20.50;11.53;;;16.30;99.90;;;;;;5048003;28;20213;-80
2022/07/09 03:15:51;;;;;;;21.07;11.33;;;16.30;99.90;;;;;;5049309;28;20247;-80
2022/07/09 03:18:18;;;;;;;21.50;11.30;;;16.50;99.90;;;;;;5045859;28;21546;-83
2022/07/09 03:20:48;;;;;;;17.80;10.80;;;16.50;99.90;;;;;;5043481;28;20197;-83
2022/07/09 03:23:15;;;;;;;18.83;11.67;;;16.50;99.90;;;;;;5047618;28;20252;-80
2022/07/09 03:25:42;;;;;;;20.17;11.23;;;16.60;99.90;;;;;;5050432;28;20613;-82
2022/07/09 03:28:10;;;;;;;19.90;11.93;;;16.60;99.90;;;;;;5050743;28;20274;-82
2022/07/09 03:30:37;;;;;;;19.37;11.07;;;16.70;99.90;;;;;;5044536;28;20218;-81
2022/07/09 03:33:04;;;;;;;21.80;12.17;;;16.70;99.90;;;;;;5051493;28;20258;-80
2022/07/09 03:35:30;;;;;;;23.20;12.70;;;16.70;99.90;;;;;;5052036;28;20244;-82
2022/07/09 03:37:57;;;;;;;21.70;12.60;;;16.80;99.90;;;;;;5050568;28;20197;-83
2022/07/09 03:40:24;;;;;;;20.70;11.87;;;16.80;99.90;;;;;;5046663;28;20201;-81
2022/07/09 03:42:51;;;;;;;20.00;12.10;;;16.90;99.90;;;;;;5046006;28;20874;-81
2022/07/09 03:45:17;;;;;;;21.40;12.23;;;16.90;99.90;;;;;;5043964;28;20672;-82
2022/07/09 03:47:45;;;;;;;24.53;12.70;;;17.00;99.90;;;;;;5042786;28;20237;-81
2022/07/09 03:50:12;;;;;;;18.63;11.60;;;17.00;99.90;;;;;;5048275;28;20212;-80
2022/07/09 03:52:38;;;;;;;21.87;11.83;;;17.00;99.90;;;;;;5046922;28;20201;-81
2022/07/09 03:55:06;;;;;;;23.23;14.00;;;17.10;99.90;;;;;;5045553;28;20278;-80
2022/07/09 03:57:32;;;;;;;20.93;12.20;;;17.10;99.90;;;;;;5047367;28;20259;-81
2022/07/09 04:00:00;;;;;;;23.27;12.70;;;17.10;99.90;;;;;;5050416;28;20251;-78
2022/07/09 04:02:27;;;;;;;24.07;12.93;;;17.10;99.90;;;;;;5051319;28;20201;-80
2022/07/09 04:04:56;;;;;;;20.53;12.50;;;17.10;99.90;;;;;;5050995;28;20279;-82
2022/07/09 04:07:26;;;;;;;23.17;13.20;;;17.10;99.90;;;;;;5051151;28;20251;-80
2022/07/09 04:09:53;;;;;;;24.30;13.73;;;17.10;99.90;;;;;;5049823;28;20205;-80
2022/07/09 04:12:21;;;;;;;20.17;13.03;;;17.10;99.90;;;;;;5054346;28;20209;-81
2022/07/09 04:14:47;;;;;;;21.97;13.43;;;17.10;99.90;;;;;;5052498;28;20221;-81
2022/07/09 04:17:14;;;;;;;21.30;14.10;;;17.20;99.90;;;;;;5051080;28;20229;-81
2022/07/09 04:19:41;;;;;;;20.43;13.43;;;17.20;99.90;;;;;;5051288;28;20565;-81
2022/07/09 04:22:08;;;;;;;23.60;13.33;;;17.30;99.90;;;;;;5051325;28;20235;-82
2022/07/09 04:24:35;;;;;;;22.30;13.33;;;17.30;99.90;;;;;;5053140;28;21435;-81
2022/07/09 04:27:03;;;;;;;23.57;13.67;;;17.30;99.90;;;;;;5046666;28;20256;-81
2022/07/09 04:29:30;;;;;;;21.83;13.37;;;17.40;99.90;;;;;;5044839;28;20233;-82
2022/07/09 04:31:56;;;;;;;19.43;11.80;;;17.50;99.90;;;;;;5048324;28;20224;-81
2022/07/09 04:34:23;;;;;;;21.02;12.68;;;17.50;99.90;;;;;;5046201;28;20261;-82
2022/07/09 04:36:50;;;;;;;20.20;12.73;;;17.50;99.90;;;;;;5050314;28;20213;-82
2022/07/09 04:39:17;;;;;;;19.75;11.73;;;17.60;99.90;;;;;;5047270;28;20201;-82
2022/07/09 04:41:44;;;;;;;21.02;11.23;;;17.60;99.90;;;;;;5047740;28;20254;-81
2022/07/09 04:44:15;;;;;;;20.40;10.77;;;17.70;99.90;;;;;;5048920;28;20265;-82
2022/07/09 04:46:43;;;;;;;20.02;11.05;;;17.70;99.90;;;;;;5047027;28;20201;-82
2022/07/09 04:49:10;;;;;;;19.10;11.23;;;17.90;99.90;;;;;;5040997;28;20222;-81
2022/07/09 04:51:37;;;;;;;16.50;10.70;;;18.00;99.90;;;;;;5047602;28;20297;-81
2022/07/09 04:54:03;;;;;;;18.85;10.05;;;18.00;99.90;;;;;;5048417;28;20209;-80
2022/07/09 04:56:30;;;;;;;16.98;10.70;;;18.10;99.90;;;;;;5050807;28;20229;-81
2022/07/09 04:59:00;;;;;;;14.95;8.85;;;18.30;99.90;;;;;;5044570;28;20258;-82
2022/07/09 05:01:29;;;;;;;16.90;9.93;;;18.40;99.90;;;;;;5050295;28;20664;-81
2022/07/09 05:03:56;;;;;;;16.35;9.05;;;18.50;99.90;;;;;;5048914;28;20285;-82
2022/07/09 05:06:23;;;;;;;13.43;8.50;;;18.60;99.90;;;;;;5047807;28;20209;-81
2022/07/09 05:08:50;;;;;;;12.88;8.98;;;18.60;99.90;;;;;;5045690;28;20197;-81
2022/07/09 05:11:17;;;;;;;12.95;8.40;;;18.70;99.90;;;;;;5046791;28;20209;-81
2022/07/09 05:13:46;;;;;;;11.60;8.13;;;18.70;99.90;;;;;;5046840;28;20662;-81
2022/07/09 05:16:13;;;;;;;16.73;8.48;;;18.80;99.90;;;;;;5049631;28;20213;-81
2022/07/09 05:18:40;;;;;;;13.52;8.43;;;18.80;99.90;;;;;;5049966;28;20267;-81
2022/07/09 05:21:07;;;;;;;11.63;8.50;;;18.90;99.90;;;;;;5049564;28;20204;-81
2022/07/09 05:23:34;;;;;;;14.90;8.23;;;19.00;99.90;;;;;;5048781;28;20197;-81
2022/07/09 05:26:01;;;;;;;12.20;7.03;;;19.10;99.90;;;;;;5047532;28;20282;-81
2022/07/09 05:28:27;;;;;;;12.30;7.20;;;19.20;99.90;;;;;;5047219;28;20716;-82
2022/07/09 05:30:55;;;;;;;11.38;6.97;;;19.20;99.90;;;;;;5049858;28;20192;-82
2022/07/09 05:33:41;;;;;;;11.48;5.88;;;19.30;99.90;;;;;;5047733;28;21474;-82
2022/07/09 05:36:15;;;;;;;10.50;6.00;;;19.40;99.90;;;;;;5043658;28;20662;-80
2022/07/09 05:38:42;;;;;;;11.80;6.50;;;19.50;99.90;;;;;;5044381;28;20278;-81
2022/07/09 05:41:10;;;;;;;9.70;6.32;;;19.60;99.90;;;;;;5042253;28;20641;-81
2022/07/09 05:43:37;;;;;;;11.10;6.53;;;19.70;99.90;;;;;;5044435;28;20201;-81
2022/07/09 05:46:04;;;;;;;7.28;5.57;;;19.70;99.90;;;;;;5044641;28;20685;-81
2022/07/09 05:48:31;;;;;;;7.75;4.93;;;19.90;99.90;;;;;;5046511;28;20224;-81
2022/07/09 05:50:58;;;;;;;7.47;4.82;;;20.00;99.90;;;;;;5044022;28;20290;-80
2022/07/09 05:53:25;;;;;;;8.23;4.85;;;20.20;99.90;;;;;;5042171;28;20669;-81
2022/07/09 05:55:53;;;;;;;9.18;5.43;;;20.20;99.90;;;;;;5047190;28;20303;-81
2022/07/09 05:58:20;;;;;;;7.43;5.22;;;20.40;99.90;;;;;;5045489;28;20201;-81
2022/07/09 06:00:46;;;;;;;6.78;4.30;;;20.30;99.90;;;;;;5045921;28;20213;-80
2022/07/09 06:03:13;;;;;;;5.72;3.97;;;20.20;99.90;;;;;;5044695;28;20235;-81
2022/07/09 06:05:40;;;;;;;7.25;4.22;;;20.20;99.90;;;;;;5037974;28;20197;-80
2022/07/09 06:08:09;;;;;;;6.35;4.13;;;20.20;99.90;;;;;;5044881;28;20205;-81
2022/07/09 06:10:36;;;;;;;5.43;3.80;;;20.20;99.90;;;;;;5044419;28;20274;-83
2022/07/09 06:13:04;;;;;;;3.58;2.92;;;20.20;99.90;;;;;;5043712;28;20206;-82
2022/07/09 06:15:31;;;;;;;5.00;3.58;;;20.30;99.90;;;;;;5048146;28;20229;-82
2022/07/09 06:17:58;;;;;;;7.07;3.20;;;20.30;99.90;;;;;;5048617;28;20676;-81
2022/07/09 06:20:25;;;;;;;4.40;2.95;;;20.30;99.90;;;;;;5044636;28;20189;-81
2022/07/09 06:22:51;;;;;;;6.30;2.95;;;20.30;99.90;;;;;;5044964;28;20221;-82
2022/07/09 06:25:18;;;;;;;5.47;3.00;;;20.40;99.90;;;;;;5049347;28;20258;-83
2022/07/09 06:27:45;;;;;;;3.47;2.97;;;20.50;99.90;;;;;;5044129;28;20244;-83
2022/07/09 06:30:12;;;;;;;5.57;3.10;;;20.40;99.90;;;;;;5044991;28;20535;-83
2022/07/09 06:32:39;;;;;;;4.68;2.92;;;20.50;99.90;;;;;;5047961;28;20557;-80
2022/07/09 06:35:06;;;;;;;5.38;3.08;;;20.50;99.90;;;;;;5045655;28;20225;-82
2022/07/09 06:37:33;;;;;;;5.32;2.92;;;20.60;99.90;;;;;;5046762;28;20209;-83
2022/07/09 06:39:59;;;;;;;3.53;2.65;;;20.70;99.90;;;;;;5047701;28;20205;-82
2022/07/09 06:42:26;;;;;;;4.88;2.42;;;20.90;99.90;;;;;;5042973;28;20205;-84
2022/07/09 06:45:00;;;;;;;4.50;2.33;;;21.50;99.90;;;;;;5058447;28;20200;-82
2022/07/09 06:47:27;;;;;;;3.20;2.10;;;22.40;99.90;;;;;;5045481;28;20282;-81
2022/07/09 06:49:54;;;;;;;2.63;1.95;;;23.50;99.90;;;;;;5047232;28;20693;-79
2022/07/09 06:52:21;;;;;;;2.60;2.22;;;24.60;99.90;;;;;;5078688;28;20217;-81
2022/07/09 06:54:47;;;;;;;2.03;1.83;;;25.40;99.90;;;;;;5044563;28;20260;-80
2022/07/09 06:57:16;;;;;;;2.55;2.00;;;26.30;99.90;;;;;;5040570;28;20198;-82
2022/07/09 06:59:45;;;;;;;3.10;1.90;;;27.00;99.90;;;;;;5038540;28;20881;-81
2022/07/09 07:02:13;;;;;;;6.15;2.67;;;27.20;99.90;;;;;;5037133;28;20217;-80
2022/07/09 07:04:39;;;;;;;3.78;2.42;;;27.20;99.90;;;;;;5044522;28;20209;-80
2022/07/09 07:07:06;;;;;;;3.00;2.10;;;27.60;99.90;;;;;;5047033;28;20253;-81
2022/07/09 07:09:33;;;;;;;2.40;1.90;;;28.10;99.90;;;;;;5041668;28;20263;-82
2022/07/09 07:12:00;;;;;;;2.35;1.90;;;28.30;99.90;;;;;;5044753;28;20259;-80
2022/07/09 07:14:27;;;;;;;2.60;2.13;;;28.40;99.90;;;;;;5043833;28;20236;-80
2022/07/09 07:16:54;;;;;;;2.97;2.10;;;28.60;99.90;;;;;;5037517;28;20700;-81
2022/07/09 07:19:21;;;;;;;2.78;2.20;;;28.60;99.90;;;;;;5040539;28;20249;-80
2022/07/09 07:21:49;;;;;;;2.13;1.92;;;28.50;99.90;;;;;;5047326;28;20282;-81
2022/07/09 07:24:16;;;;;;;2.78;1.80;;;28.30;99.90;;;;;;5046127;28;20289;-80
2022/07/09 07:26:43;;;;;;;2.83;1.83;;;28.20;99.90;;;;;;5043684;28;20669;-79
2022/07/09 07:29:10;;;;;;;2.38;1.70;;;28.10;99.90;;;;;;5043677;28;20213;-80
2022/07/09 07:31:38;;;;;;;3.88;1.45;;;28.00;99.90;;;;;;5048204;28;20240;-79
2022/07/09 07:34:06;;;;;;;2.35;1.63;;;27.80;99.90;;;;;;5036601;28;20751;-79
2022/07/09 07:36:34;;;;;;;2.10;1.60;;;27.80;99.90;;;;;;5042789;28;20532;-79
2022/07/09 07:39:01;;;;;;;4.45;1.70;;;27.50;99.90;;;;;;5040434;28;20206;-80
2022/07/09 07:41:28;;;;;;;3.55;1.50;;;27.30;99.90;;;;;;5045823;28;20228;-80
2022/07/09 07:43:55;;;;;;;4.35;2.10;;;27.00;99.90;;;;;;5044737;28;20205;-80
2022/07/09 07:46:22;;;;;;;3.15;2.22;;;26.90;99.90;;;;;;5052711;28;20263;-79
2022/07/09 07:48:49;;;;;;;3.45;2.25;;;26.90;99.90;;;;;;5048966;28;20281;-81
2022/07/09 07:51:15;;;;;;;2.13;1.92;;;26.60;99.90;;;;;;5052602;28;20542;-84
2022/07/09 07:53:42;;;;;;;3.85;2.55;;;26.60;99.90;;;;;;5045910;28;20537;-80
2022/07/09 07:56:09;;;;;;;2.53;1.67;;;26.60;99.90;;;;;;5080882;28;20250;-81
2022/07/09 07:58:36;;;;;;;4.47;1.65;;;26.70;99.90;;;;;;5042432;28;20489;-80
2022/07/09 08:01:04;;;;;;;5.22;2.28;;;26.80;99.90;;;;;;5045661;28;20205;-80
2022/07/09 08:03:31;;;;;;;2.67;2.03;;;26.50;99.90;;;;;;5046710;28;20219;-80
2022/07/09 08:06:00;;;;;;;4.47;2.22;;;26.30;99.90;;;;;;5054250;28;20626;-82
2022/07/09 08:08:29;;;;;;;4.35;2.30;;;25.90;99.90;;;;;;5050291;28;20193;-80
2022/07/09 08:10:55;;;;;;;2.38;1.90;;;25.60;99.90;;;;;;5054320;28;20213;-81
2022/07/09 08:13:25;;;;;;;3.47;2.30;;;25.10;99.90;;;;;;5046732;28;20205;-81
2022/07/09 08:15:52;;;;;;;2.83;1.75;;;24.70;99.90;;;;;;5052266;28;20229;-79
2022/07/09 08:18:19;;;;;;;2.10;1.90;;;24.50;99.90;;;;;;5049708;28;20290;-81
2022/07/09 08:20:49;;;;;;;4.60;1.70;;;24.30;99.90;;;;;;5047828;28;20208;-82
2022/07/09 08:23:16;;;;;;;2.90;1.80;;;24.20;99.90;;;;;;5049522;28;20213;-80
2022/07/09 08:25:42;;;;;;;2.92;1.65;;;24.10;99.90;;;;;;5048917;28;20217;-80
2022/07/09 08:28:09;;;;;;;2.38;1.50;;;24.00;99.90;;;;;;5048567;28;20213;-79
2022/07/09 08:30:37;;;;;;;3.97;1.60;;;24.00;99.90;;;;;;5047861;28;20258;-81
2022/07/09 08:33:03;;;;;;;2.75;1.50;;;23.90;99.90;;;;;;5043529;28;20248;-79
2022/07/09 08:35:35;;;;;;;3.40;2.08;;;23.90;99.90;;;;;;5041261;28;20225;-82
2022/07/09 08:38:02;;;;;;;3.20;1.90;;;24.20;99.90;;;;;;5043881;28;20617;-82
2022/07/09 08:40:30;;;;;;;2.38;1.70;;;24.40;99.90;;;;;;5048148;28;20209;-79
2022/07/09 08:43:02;;;;;;;2.10;1.90;;;24.80;99.90;;;;;;5045247;28;20212;-79
2022/07/09 08:45:30;;;;;;;2.10;1.70;;;25.10;99.90;;;;;;5040749;28;20266;-78
2022/07/09 08:48:00;;;;;;;4.20;2.85;;;25.20;99.90;;;;;;5072911;28;20670;-82
2022/07/09 08:50:27;;;;;;;5.72;2.67;;;25.20;99.90;;;;;;5042799;28;20282;-80
2022/07/09 08:52:55;;;;;;;4.38;2.30;;;25.10;99.90;;;;;;5046517;28;20204;-81
2022/07/09 08:55:22;;;;;;;4.25;2.58;;;25.10;99.90;;;;;;5042474;28;20248;-82
2022/07/09 08:57:51;;;;;;;3.05;2.45;;;25.00;99.90;;;;;;5046022;28;20205;-80
2022/07/09 09:00:17;;;;;;;4.85;2.53;;;24.90;99.90;;;;;;5041178;28;20248;-82
2022/07/09 09:02:44;;;;;;;5.18;3.00;;;24.90;99.90;;;;;;5047053;28;20271;-81
2022/07/09 09:05:15;;;;;;;4.25;2.60;;;24.60;99.90;;;;;;5042988;28;20323;-81
2022/07/09 09:07:43;;;;;;;4.25;3.22;;;24.40;99.90;;;;;;5050030;28;20201;-83
2022/07/09 09:10:44;;;;;;;6.57;3.13;;;24.20;99.90;;;;;;5053337;28;20838;-84
2022/07/09 09:13:14;;;;;;;5.03;3.63;;;23.90;99.90;;;;;;5037542;28;20317;-86
2022/07/09 09:15:41;;;;;;;4.55;4.03;;;23.70;99.90;;;;;;5050806;28;20358;-86
2022/07/09 09:18:11;;;;;;;5.68;3.67;;;23.50;99.90;;;;;;5052128;28;20583;-85
2022/07/09 09:20:44;;;;;;;5.28;3.10;;;23.20;99.90;;;;;;5053717;28;20203;-85
2022/07/09 09:23:15;;;;;;;4.03;3.42;;;23.00;99.90;;;;;;5050862;28;20252;-84
2022/07/09 09:25:42;;;;;;;4.95;3.10;;;22.90;99.90;;;;;;5046354;28;20713;-85
2022/07/09 09:28:12;;;;;;;5.97;2.80;;;23.00;99.90;;;;;;5046114;28;20300;-86
2022/07/09 09:30:43;;;;;;;5.68;2.60;;;23.20;99.90;;;;;;5048804;28;20257;-85
2022/07/09 09:33:15;;;;;;;3.53;2.45;;;23.20;99.90;;;;;;5043850;28;20278;-84
2022/07/09 09:35:46;;;;;;;3.45;2.15;;;23.30;99.90;;;;;;5048493;28;20223;-87
2022/07/09 09:38:13;;;;;;;2.40;2.17;;;23.40;99.90;;;;;;5048428;28;20205;-83
2022/07/09 09:40:45;;;;;;;2.67;2.17;;;23.40;99.90;;;;;;5042566;28;20619;-85
2022/07/09 09:43:18;;;;;;;1.98;1.67;;;23.50;99.90;;;;;;5046517;28;20595;-86
2022/07/09 09:45:49;;;;;;;2.22;1.42;;;23.50;99.90;;;;;;5045325;28;20201;-84
2022/07/09 09:48:18;;;;;;;3.17;1.50;;;23.70;99.90;;;;;;5046762;28;20338;-85
2022/07/09 09:50:47;;;;;;;1.73;1.40;;;23.80;99.90;;;;;;5045358;28;20295;-84
2022/07/09 09:53:15;;;;;;;2.85;1.50;;;23.90;99.90;;;;;;5045548;28;20197;-88
2022/07/09 09:55:42;;;;;;;2.88;1.48;;;23.90;99.90;;;;;;5073981;28;20202;-86
2022/07/09 09:58:13;;;;;;;3.35;1.70;;;24.00;99.90;;;;;;5048973;28;21065;-87
2022/07/09 10:00:40;;;;;;;2.35;1.45;;;24.10;99.90;;;;;;5046915;28;20608;-87
2022/07/09 10:03:10;;;;;;;1.90;1.70;;;24.10;99.90;;;;;;5049398;28;20688;-86
2022/07/09 10:05:37;;;;;;;4.40;1.80;;;24.00;99.90;;;;;;5043852;28;20197;-84
2022/07/09 10:08:04;;;;;;;2.45;1.77;;;23.80;99.90;;;;;;5043895;28;20595;-87
2022/07/09 10:10:31;;;;;;;3.53;1.88;;;23.70;99.90;;;;;;5052075;28;20200;-84
2022/07/09 10:12:58;;;;;;;2.67;1.95;;;23.60;99.90;;;;;;5042370;28;20270;-84
2022/07/09 10:15:26;;;;;;;2.03;1.75;;;23.50;99.90;;;;;;5047239;28;20211;-83
2022/07/09 10:17:55;;;;;;;2.38;1.58;;;23.70;99.90;;;;;;5044847;28;20228;-83
2022/07/09 10:20:33;;;;;;;3.55;1.73;;;23.90;99.90;;;;;;5043327;28;20304;-83
2022/07/09 10:23:05;;;;;;;3.08;1.65;;;24.30;99.90;;;;;;5044606;28;20554;-81
2022/07/09 10:25:44;;;;;;;2.00;1.58;;;24.40;99.90;;;;;;5037585;28;20669;-81
2022/07/09 10:28:19;;;;;;;3.28;1.40;;;24.60;99.90;;;;;;5041400;28;20227;-81
2022/07/09 10:30:47;;;;;;;1.88;1.30;;;24.80;99.90;;;;;;5045559;28;20199;-82
2022/07/09 10:33:31;;;;;;;2.38;1.60;;;24.80;99.90;;;;;;5043643;28;20996;-83
2022/07/09 10:36:08;;;;;;;3.95;1.55;;;24.90;99.90;;;;;;5042039;28;20205;-83
2022/07/09 10:38:38;;;;;;;2.38;2.00;;;25.00;99.90;;;;;;5071733;28;20638;-83
2022/07/09 10:41:06;;;;;;;2.08;1.40;;;25.00;99.90;;;;;;5039601;28;20198;-81
2022/07/09 10:43:44;;;;;;;1.83;1.20;;;24.90;99.90;;;;;;5042281;28;20243;-83
2022/07/09 10:46:13;;;;;;;2.22;1.60;;;25.00;99.90;;;;;;5045256;28;20213;-81
2022/07/09 10:48:42;;;;;;;1.67;1.10;;;24.90;99.90;;;;;;5045548;28;20213;-83
2022/07/09 10:51:19;;;;;;;1.20;1.08;;;24.90;99.90;;;;;;5043927;28;20232;-82
2022/07/09 10:53:46;;;;;;;1.65;0.95;;;25.10;99.90;;;;;;5044749;28;20309;-81
2022/07/09 10:56:21;;;;;;;2.65;1.10;;;25.20;99.90;;;;;;5041351;28;20240;-81
2022/07/09 10:58:49;;;;;;;2.55;1.13;;;25.30;99.90;;;;;;5042484;28;20644;-80
2022/07/09 11:01:21;;;;;;;2.00;1.10;;;25.40;99.90;;;;;;5044702;28;20206;-80
2022/07/09 11:03:51;;;;;;;1.77;0.95;;;25.60;99.90;;;;;;5043690;28;20220;-82
2022/07/09 11:06:19;;;;;;;1.48;0.80;;;25.40;99.90;;;;;;5046685;28;20569;-81
2022/07/09 11:08:46;;;;;;;1.40;1.20;;;25.10;99.90;;;;;;5048251;28;20201;-83
2022/07/09 11:11:21;;;;;;;1.00;0.82;;;25.00;99.90;;;;;;5042120;28;20202;-83
2022/07/09 11:13:51;;;;;;;1.20;0.70;;;25.10;99.90;;;;;;5046047;28;20234;-82
2022/07/09 11:16:24;;;;;;;1.85;1.10;;;25.10;99.90;;;;;;5050845;28;20308;-81
2022/07/09 11:18:53;;;;;;;1.35;1.00;;;25.00;99.90;;;;;;5049463;28;20233;-83
2022/07/09 11:21:24;;;;;;;2.58;0.80;;;24.90;99.90;;;;;;5048603;28;20215;-80
2022/07/09 11:23:51;;;;;;;0.80;0.80;;;24.90;99.90;;;;;;5048515;28;20201;-81
2022/07/09 11:26:19;;;;;;;3.05;1.08;;;25.00;99.90;;;;;;5050007;28;20204;-81
2022/07/09 11:28:47;;;;;;;1.23;0.80;;;25.00;99.90;;;;;;5046975;28;20215;-80
2022/07/09 11:31:16;;;;;;;2.78;1.05;;;25.20;99.90;;;;;;5050630;28;20208;-81
2022/07/09 11:36:57;;;;;;;1.48;0.90;;;25.40;99.90;;;;;;5049303;28;20285;-79
2022/07/09 11:39:26;;;;;;;2.83;1.27;;;25.10;99.90;;;;;;5044624;28;20247;-82
2022/07/09 11:41:55;;;;;;;2.75;0.93;;;24.90;99.90;;;;;;5048864;28;20735;-81
2022/07/09 11:44:34;;;;;;;4.95;1.60;;;24.80;99.90;;;;;;5047442;28;20205;-82
2022/07/09 11:47:07;;;;;;;4.97;1.30;;;24.80;99.90;;;;;;5074513;28;20193;-84
2022/07/09 11:49:38;;;;;;;3.40;1.10;;;24.70;99.90;;;;;;5043485;28;20221;-80
2022/07/09 11:52:17;;;;;;;2.75;1.20;;;24.80;99.90;;;;;;5046187;28;20724;-82
2022/07/09 11:55:07;;;;;;;2.70;1.10;;;24.90;99.90;;;;;;5045334;28;20274;-78
2022/07/09 11:57:36;;;;;;;4.07;1.48;;;24.70;99.90;;;;;;5046734;28;20243;-79
2022/07/09 12:00:08;;;;;;;3.28;1.10;;;24.70;99.90;;;;;;5045752;28;20676;-79
2022/07/09 12:02:37;;;;;;;2.03;1.10;;;24.80;99.90;;;;;;5042680;28;20204;-82
2022/07/09 12:05:06;;;;;;;3.92;1.30;;;25.00;99.90;;;;;;5044234;28;20240;-81
2022/07/09 12:07:34;;;;;;;1.63;1.10;;;25.00;99.90;;;;;;5047183;28;20290;-81
2022/07/09 12:10:08;;;;;;;2.33;1.00;;;25.10;99.90;;;;;;5043924;28;20298;-81
2022/07/09 12:12:36;;;;;;;2.70;1.10;;;25.00;99.90;;;;;;5041199;28;20213;-82
2022/07/09 12:15:05;;;;;;;1.55;1.00;;;25.00;99.90;;;;;;5052235;28;20214;-80
2022/07/09 12:17:36;;;;;;;1.63;0.80;;;25.00;99.90;;;;;;5041115;28;20248;-79
2022/07/09 12:20:06;;;;;;;3.55;1.00;;;24.90;99.90;;;;;;5052993;28;20680;-81
2022/07/09 12:22:33;;;;;;;4.45;1.02;;;24.70;99.90;;;;;;5054953;28;20209;-80
2022/07/09 12:25:01;;;;;;;2.70;1.10;;;24.70;99.90;;;;;;5051856;28;20216;-83
2022/07/09 12:27:31;;;;;;;1.38;0.82;;;24.90;99.90;;;;;;5053785;28;20727;-84
2022/07/09 12:29:58;;;;;;;1.80;1.13;;;24.80;99.90;;;;;;5052653;28;20695;-81
2022/07/09 12:32:24;;;;;;;2.25;0.90;;;24.60;99.90;;;;;;5049176;28;20205;-81
2022/07/09 12:34:52;;;;;;;1.63;1.00;;;24.50;99.90;;;;;;5048784;28;20816;-83
2022/07/09 12:37:19;;;;;;;2.97;0.90;;;24.50;99.90;;;;;;5050567;28;20221;-87
2022/07/09 12:39:46;;;;;;;4.15;1.08;;;24.60;99.90;;;;;;5050983;28;20259;-84
2022/07/09 12:42:18;;;;;;;4.47;0.90;;;24.90;99.90;;;;;;5051837;28;20678;-84
2022/07/09 12:44:45;;;;;;;2.13;1.00;;;25.00;99.90;;;;;;5048514;28;20209;-86
2022/07/09 12:47:12;;;;;;;1.40;0.80;;;25.30;99.90;;;;;;5049497;28;20229;-83
2022/07/09 12:49:38;;;;;;;3.63;1.10;;;25.60;99.90;;;;;;5052828;28;20266;-84